Impacts METAR Board INFO
IDs:

KDFW - Dallas-Ft Worth Intl, TX, US

Updated at: 1152 UTC 18 Jan 2018
Potential Impact None Slight Moderate High
Time17/23Z 18/00Z 18/01Z 18/02Z 18/03Z 18/04Z 18/05Z 18/06Z 18/07Z 18/08Z 18/09Z 18/10Z 18/11Z
VIS10 10 10 10 10 10 10 10 10 10 10 10 10
CIG-- -- -- -- -- -- -- -- -- -- -- -- --
CoverCLRCLRCLRCLRCLRCLRCLRCLRCLRCLRCLRCLRCLR
FltCatVFRVFRVFRVFRVFRVFRVFRVFRVFRVFRVFRVFRVFR
WX--------------------------
WDir0001401601901801902000190200200
WSpd0 0 0 7 5 6 7 7 4 0 4 6 6
WGst-- -- -- -- -- -- -- -- -- -- -- -- --
Raw hourly METARs
KDFW 172253Z 00000KT 10SM CLR 02/M17 A3061 RMK AO2 SLP372 T00221172
KDFW 172353Z 00000KT 10SM CLR 01/M17 A3060 RMK AO2 SLP368 T00061172 10028 21033 58011 $
KDFW 180053Z 00000KT 10SM CLR 00/M17 A3059 RMK AO2 SLP365 T00001167 $
KDFW 180153Z 14007KT 10SM CLR M02/M16 A3059 RMK AO2 SLP364 T10221156 $
KDFW 180253Z 16005KT 10SM CLR M02/M14 A3059 RMK AO2 SLP364 T10221144 55003 $
KDFW 180353Z 19006KT 10SM CLR M04/M14 A3059 RMK AO2 SLP365 T10391139 $
KDFW 180453Z 18007KT 10SM CLR M04/M14 A3059 RMK AO2 SLP364 T10391139 $
KDFW 180553Z 19007KT 10SM CLR M04/M13 A3058 RMK AO2 SLP359 T10441133 10006 21044 400561106 58005 $
KDFW 180653Z 20004KT 10SM CLR M05/M13 A3056 RMK AO2 SLP353 T10501128 $
KDFW 180753Z 00000KT 10SM CLR M04/M12 A3055 RMK AO2 SLP349 T10441122 $
KDFW 180853Z 19004KT 10SM CLR M05/M12 A3054 RMK AO2 SLP346 T10501122 56012 $
KDFW 180953Z 20006KT 10SM CLR M07/M13 A3053 RMK AO2 SLP344 T10671128 $
KDFW 181053Z 20006KT 10SM CLR M06/M12 A3052 RMK AO2 SLP339 T10611122 $